Time;durP1;ratioP1;P1;durP2;ratioP2;P2;SDS_P1;SDS_P2;PMS_P1;PMS_P2;Temp;Humidity;BMP_temperature;BMP_pressure;BME280_temperature;BME280_humidity;BME280_pressure;Samples;Min_cycle;Max_cycle;Signal;HPM_P1;HPM_P2
2022/09/29 00:01:06;;;;;;;;;;;5.30;99.90;;;;;;5093400;28;19974;-66
2022/09/29 00:03:31;;;;;;;;;;;5.40;99.90;;;;;;5093182;28;20118;-66
2022/09/29 00:05:57;;;;;;;;;;;5.40;99.90;;;;;;5093133;28;20385;-66
2022/09/29 00:08:24;;;;;;;;;;;5.40;99.90;;;;;;5093071;28;20548;-66
2022/09/29 00:10:49;;;;;;;;;;;5.40;99.90;;;;;;5091461;28;19931;-66
2022/09/29 00:13:15;;;;;;;;;;;5.40;99.90;;;;;;5072509;28;19924;-66
2022/09/29 00:15:41;;;;;;;;;;;5.40;99.90;;;;;;5085685;28;19924;-66
2022/09/29 00:18:08;;;;;;;;;;;5.40;99.90;;;;;;5087907;28;20610;-66
2022/09/29 00:20:34;;;;;;;;;;;5.40;99.90;;;;;;5089720;28;20285;-66
2022/09/29 00:22:59;;;;;;;;;;;5.40;99.90;;;;;;5089952;28;19924;-66
2022/09/29 00:25:25;;;;;;;;;;;5.40;99.90;;;;;;5072730;28;19928;-66
2022/09/29 00:27:50;;;;;;;;;;;5.40;99.90;;;;;;5072600;28;19927;-66
2022/09/29 00:30:16;;;;;;;;;;;5.40;99.90;;;;;;5051300;28;19927;-66
2022/09/29 00:32:42;;;;;;;;;;;5.40;99.90;;;;;;5065753;28;20393;-66
2022/09/29 00:35:09;;;;;;;;;;;5.40;99.90;;;;;;5083719;28;19936;-66
2022/09/29 00:37:34;;;;;;;;;;;5.40;99.90;;;;;;5084342;28;19963;-66
2022/09/29 00:40:00;;;;;;;;;;;5.40;99.90;;;;;;5089167;28;19939;-66
2022/09/29 00:42:26;;;;;;;;;;;5.30;99.90;;;;;;5072795;28;19921;-66
2022/09/29 00:45:01;;;;;;;;;;;5.40;99.90;;;;;;5056115;28;19925;-67
2022/09/29 00:47:27;;;;;;;;;;;5.40;99.90;;;;;;5066019;28;19921;-66
2022/09/29 00:49:57;;;;;;;;;;;5.40;99.90;;;;;;5088830;28;19921;-66
2022/09/29 00:52:27;;;;;;;;;;;5.30;99.90;;;;;;5088111;28;19936;-66
2022/09/29 00:55:01;;;;;;;;;;;5.40;99.90;;;;;;5088859;28;19966;-66
2022/09/29 00:57:30;;;;;;;;;;;5.40;99.90;;;;;;5089366;28;20255;-66
2022/09/29 01:00:01;;;;;;;;;;;5.30;99.90;;;;;;5082836;28;19920;-66
2022/09/29 01:02:27;;;;;;;;;;;5.30;99.90;;;;;;5051362;28;20018;-66
2022/09/29 01:04:54;;;;;;;;;;;5.40;99.90;;;;;;5062078;28;20008;-66
2022/09/29 01:07:23;;;;;;;;;;;5.40;99.90;;;;;;5071144;28;20413;-66
2022/09/29 01:09:50;;;;;;;;;;;5.30;99.90;;;;;;5071880;28;19931;-66
2022/09/29 01:12:17;;;;;;;;;;;5.30;99.90;;;;;;5071745;28;19924;-66
2022/09/29 01:14:42;;;;;;;;;;;5.20;99.90;;;;;;5070201;28;19928;-66
2022/09/29 01:17:08;;;;;;;;;;;5.20;99.90;;;;;;5050929;28;19931;-66
2022/09/29 01:19:46;;;;;;;;;;;5.10;99.90;;;;;;5076053;28;20373;-66
2022/09/29 01:22:40;;;;;;;;;;;5.10;99.90;;;;;;5080006;28;19924;-66
2022/09/29 01:25:25;;;;;;;;;;;5.10;99.90;;;;;;5071619;28;19944;-66
2022/09/29 01:28:01;;;;;;;;;;;5.10;99.90;;;;;;5089351;28;19924;-66
2022/09/29 01:30:36;;;;;;;;;;;5.00;99.90;;;;;;5089133;28;19921;-66
2022/09/29 01:33:14;;;;;;;;;;;5.00;99.90;;;;;;5088490;28;20020;-66
2022/09/29 01:35:58;;;;;;;;;;;5.00;99.90;;;;;;5088401;28;20368;-66
2022/09/29 01:38:29;;;;;;;;;;;5.00;99.90;;;;;;5063520;28;19920;-66
2022/09/29 01:41:30;;;;;;;;;;;5.00;99.90;;;;;;5083222;28;19921;-66
2022/09/29 01:44:15;;;;;;;;;;;5.00;99.90;;;;;;4994637;28;19925;-66
2022/09/29 01:47:01;;;;;;;;;;;5.00;99.90;;;;;;5067144;28;19920;-66
2022/09/29 01:49:30;;;;;;;;;;;5.00;99.90;;;;;;5070076;28;19921;-66
2022/09/29 01:51:55;;;;;;;;;;;5.00;99.90;;;;;;5088115;28;19920;-66
2022/09/29 01:54:44;;;;;;;;;;;5.00;99.90;;;;;;5079254;28;19943;-66
2022/09/29 01:57:16;;;;;;;;;;;5.00;99.90;;;;;;5038487;28;19977;-66
2022/09/29 01:59:41;;;;;;;;;;;5.00;99.90;;;;;;5078728;28;19920;-66
2022/09/29 02:02:10;;;;;;;;;;;5.00;99.90;;;;;;5062750;28;20329;-66
2022/09/29 02:04:44;;;;;;;;;;;5.00;99.90;;;;;;5085878;28;19926;-66
2022/09/29 02:07:15;;;;;;;;;;;5.00;99.90;;;;;;5085493;28;19993;-66
2022/09/29 02:09:43;;;;;;;;;;;5.00;99.90;;;;;;5074843;28;19921;-66
2022/09/29 02:12:12;;;;;;;;;;;5.00;99.90;;;;;;5052889;28;19928;-66
2022/09/29 02:14:41;;;;;;;;;;;5.00;99.90;;;;;;5085019;28;19947;-66
2022/09/29 02:17:11;;;;;;;;;;;5.00;99.90;;;;;;5085201;28;19986;-66
2022/09/29 02:19:39;;;;;;;;;;;5.00;99.90;;;;;;5050877;28;19970;-66
2022/09/29 02:22:05;;;;;;;;;;;5.00;99.90;;;;;;5068246;28;19932;-66
2022/09/29 02:24:31;;;;;;;;;;;5.00;99.90;;;;;;5065985;28;19921;-66
2022/09/29 02:26:57;;;;;;;;;;;5.00;99.90;;;;;;5065593;28;20066;-66
2022/09/29 02:29:22;;;;;;;;;;;5.00;99.90;;;;;;5083441;28;19924;-66
2022/09/29 02:31:48;;;;;;;;;;;5.00;99.90;;;;;;5067264;28;19927;-66
2022/09/29 02:34:16;;;;;;;;;;;4.90;99.90;;;;;;5069087;28;19971;-66
2022/09/29 02:36:53;;;;;;;;;;;4.90;99.90;;;;;;5086898;28;19938;-66
2022/09/29 02:39:38;;;;;;;;;;;5.00;99.90;;;;;;5086988;28;20064;-66
2022/09/29 02:42:04;;;;;;;;;;;4.90;99.90;;;;;;5065425;28;19920;-66
2022/09/29 02:44:48;;;;;;;;;;;5.00;99.90;;;;;;5069194;28;19927;-66
2022/09/29 02:47:22;;;;;;;;;;;4.90;99.90;;;;;;5087031;28;19924;-66
2022/09/29 02:49:47;;;;;;;;;;;4.90;99.90;;;;;;5087002;28;19927;-66
2022/09/29 02:52:31;;;;;;;;;;;5.00;99.90;;;;;;5055519;28;20011;-66
2022/09/29 02:55:04;;;;;;;;;;;5.00;99.90;;;;;;5050724;28;19932;-66
2022/09/29 02:57:29;;;;;;;;;;;4.90;99.90;;;;;;5084009;28;19924;-66
2022/09/29 03:00:05;;;;;;;;;;;4.90;99.90;;;;;;5084888;28;19928;-66
2022/09/29 03:02:31;;;;;;;;;;;4.90;99.90;;;;;;5068424;28;19943;-66
2022/09/29 03:04:56;;;;;;;;;;;4.90;99.90;;;;;;5083541;28;20358;-66
2022/09/29 03:07:22;;;;;;;;;;;4.80;99.90;;;;;;5067302;28;19932;-66
2022/09/29 03:09:48;;;;;;;;;;;4.80;99.90;;;;;;5067746;28;20011;-66
2022/09/29 03:12:13;;;;;;;;;;;4.80;99.90;;;;;;5085090;28;20413;-66
2022/09/29 03:14:38;;;;;;;;;;;4.80;99.90;;;;;;5081163;28;19979;-66
2022/09/29 03:17:04;;;;;;;;;;;4.80;99.90;;;;;;5069255;28;19925;-66
2022/09/29 03:19:29;;;;;;;;;;;4.80;99.90;;;;;;5060286;28;19920;-66
2022/09/29 03:21:55;;;;;;;;;;;4.70;99.90;;;;;;5077592;28;19948;-66
2022/09/29 03:24:20;;;;;;;;;;;4.70;99.90;;;;;;5073782;28;19921;-66
2022/09/29 03:26:46;;;;;;;;;;;4.70;99.90;;;;;;5073755;28;20015;-66
2022/09/29 03:29:12;;;;;;;;;;;;;;;;;;5073688;28;19924;-66
2022/09/29 03:31:40;;;;;;;;;;;4.70;99.90;;;;;;5073565;28;19966;-66
2022/09/29 03:34:06;;;;;;;;;;;4.70;99.90;;;;;;5090353;28;20011;-66
2022/09/29 03:36:31;;;;;;;;;;;4.70;99.90;;;;;;5090212;28;20015;-66
2022/09/29 03:38:57;;;;;;;;;;;4.70;99.90;;;;;;5081210;28;20018;-66
2022/09/29 03:41:22;;;;;;;;;;;4.70;99.90;;;;;;5053799;28;19928;-66
2022/09/29 03:43:48;;;;;;;;;;;4.70;99.90;;;;;;5072768;28;19920;-66
2022/09/29 03:46:13;;;;;;;;;;;4.70;99.90;;;;;;5073817;28;20266;-66
2022/09/29 03:48:40;;;;;;;;;;;4.70;99.90;;;;;;5073979;28;19927;-66
2022/09/29 03:51:05;;;;;;;;;;;4.70;99.90;;;;;;5073429;28;19921;-66
2022/09/29 03:53:32;;;;;;;;;;;4.70;99.90;;;;;;5089648;28;19928;-66
2022/09/29 03:55:58;;;;;;;;;;;4.70;99.90;;;;;;5067938;28;20289;-66
2022/09/29 03:58:23;;;;;;;;;;;4.60;99.90;;;;;;5056691;28;19954;-66
2022/09/29 04:00:49;;;;;;;;;;;4.70;99.90;;;;;;5074343;28;19972;-66
2022/09/29 04:03:14;;;;;;;;;;;4.70;99.90;;;;;;5072314;28;19926;-66
2022/09/29 04:05:40;;;;;;;;;;;4.70;99.90;;;;;;5088857;28;20332;-66
2022/09/29 04:08:06;;;;;;;;;;;4.70;99.90;;;;;;5072307;28;20537;-66
2022/09/29 04:10:35;;;;;;;;;;;4.70;99.90;;;;;;5086889;28;20012;-66
2022/09/29 04:13:00;;;;;;;;;;;4.60;99.90;;;;;;5060057;28;19959;-66
2022/09/29 04:15:26;;;;;;;;;;;4.60;99.90;;;;;;5054936;28;19964;-66
2022/09/29 04:17:51;;;;;;;;;;;4.60;99.90;;;;;;5051532;28;19932;-66
2022/09/29 04:20:17;;;;;;;;;;;4.70;99.90;;;;;;5081709;28;19932;-66
2022/09/29 04:22:43;;;;;;;;;;;4.70;99.90;;;;;;5054440;28;19961;-66
2022/09/29 04:25:08;;;;;;;;;;;4.70;99.90;;;;;;5062070;28;19968;-66
2022/09/29 04:27:33;;;;;;;;;;;4.70;99.90;;;;;;5061141;28;20258;-66
2022/09/29 04:29:59;;;;;;;;;;;4.70;99.90;;;;;;5076425;28;20015;-66
2022/09/29 04:32:25;;;;;;;;;;;4.70;99.90;;;;;;5071205;28;19978;-66
2022/09/29 04:34:50;;;;;;;;;;;4.70;99.90;;;;;;5067445;28;20445;-66
2022/09/29 04:37:16;;;;;;;;;;;4.70;99.90;;;;;;5084422;28;19920;-66
2022/09/29 04:39:41;;;;;;;;;;;4.60;99.90;;;;;;5072265;28;19928;-66
2022/09/29 04:42:07;;;;;;;;;;;4.60;99.90;;;;;;5082863;28;19928;-66
2022/09/29 04:44:32;;;;;;;;;;;4.60;99.90;;;;;;5090253;28;19927;-66
2022/09/29 04:46:58;;;;;;;;;;;4.60;99.90;;;;;;5089470;28;19968;-66
2022/09/29 04:49:23;;;;;;;;;;;4.60;99.90;;;;;;5073474;28;19920;-66
2022/09/29 04:51:48;;;;;;;;;;;4.60;99.90;;;;;;5072857;28;20022;-66
2022/09/29 04:54:14;;;;;;;;;;;4.60;99.90;;;;;;5074285;28;19928;-66
2022/09/29 04:56:39;;;;;;;;;;;4.50;99.90;;;;;;5072126;28;19963;-66
2022/09/29 04:59:05;;;;;;;;;;;4.50;99.90;;;;;;5072849;28;19927;-66
2022/09/29 05:01:31;;;;;;;;;;;4.50;99.90;;;;;;5072676;28;20073;-66
2022/09/29 05:03:56;;;;;;;;;;;4.50;99.90;;;;;;5067574;28;19927;-66
2022/09/29 05:06:22;;;;;;;;;;;4.50;99.90;;;;;;5085559;28;19924;-66
2022/09/29 05:08:47;;;;;;;;;;;4.50;99.90;;;;;;5062077;28;19960;-66
2022/09/29 05:11:13;;;;;;;;;;;4.50;99.90;;;;;;5086526;28;19952;-66
2022/09/29 05:13:39;;;;;;;;;;;4.50;99.90;;;;;;5068607;28;19928;-66
2022/09/29 05:16:05;;;;;;;;;;;4.50;99.90;;;;;;5072498;28;19926;-66
2022/09/29 05:18:31;;;;;;;;;;;4.40;99.90;;;;;;5066506;28;20015;-66
2022/09/29 05:21:01;;;;;;;;;;;4.40;99.90;;;;;;5067349;28;19925;-66
2022/09/29 05:23:27;;;;;;;;;;;4.40;99.90;;;;;;5071740;28;19924;-66
2022/09/29 05:25:52;;;;;;;;;;;4.40;99.90;;;;;;5070797;28;19928;-66
2022/09/29 05:28:18;;;;;;;;;;;4.50;99.90;;;;;;5071397;28;20023;-66
2022/09/29 05:30:43;;;;;;;;;;;4.40;99.90;;;;;;5077662;28;20267;-66
2022/09/29 05:33:09;;;;;;;;;;;4.40;99.90;;;;;;5072474;28;19979;-66
2022/09/29 05:35:34;;;;;;;;;;;4.40;99.90;;;;;;5075805;28;19920;-66
2022/09/29 05:38:00;;;;;;;;;;;4.40;99.90;;;;;;5046920;28;19920;-66
2022/09/29 05:40:25;;;;;;;;;;;4.40;99.90;;;;;;5069309;28;19956;-66
2022/09/29 05:42:51;;;;;;;;;;;4.50;99.90;;;;;;5070446;28;21132;-66
2022/09/29 05:45:17;;;;;;;;;;;4.40;99.90;;;;;;5071185;28;19929;-66
2022/09/29 05:47:43;;;;;;;;;;;4.40;99.90;;;;;;5069360;28;20332;-66
2022/09/29 05:50:10;;;;;;;;;;;4.40;99.90;;;;;;5054087;28;19928;-66
2022/09/29 05:52:35;;;;;;;;;;;4.40;99.90;;;;;;5071720;28;20003;-66
2022/09/29 05:55:01;;;;;;;;;;;4.50;99.90;;;;;;5071841;28;20020;-66
2022/09/29 05:57:27;;;;;;;;;;;4.50;99.90;;;;;;5068629;28;20023;-66
2022/09/29 05:59:52;;;;;;;;;;;4.50;99.90;;;;;;5070509;28;19994;-66
2022/09/29 06:02:18;;;;;;;;;;;4.60;99.90;;;;;;5069712;28;19920;-66
2022/09/29 06:04:43;;;;;;;;;;;4.60;99.90;;;;;;5068970;28;19920;-66
2022/09/29 06:07:09;;;;;;;;;;;4.70;99.90;;;;;;5071343;28;19999;-66
2022/09/29 06:09:35;;;;;;;;;;;4.80;99.90;;;;;;5072568;28;19925;-66
2022/09/29 06:12:01;;;;;;;;;;;4.90;99.90;;;;;;5070467;28;19996;-66
2022/09/29 06:14:26;;;;;;;;;;;4.90;99.90;;;;;;5075334;28;19925;-66
2022/09/29 06:16:52;;;;;;;;;;;5.00;99.90;;;;;;5067526;28;20266;-66
2022/09/29 06:19:18;;;;;;;;;;;5.20;99.90;;;;;;5073650;28;19924;-66
2022/09/29 06:21:43;;;;;;;;;;;5.30;99.90;;;;;;5066692;28;19978;-66
2022/09/29 06:24:09;;;;;;;;;;;5.50;99.90;;;;;;5057365;28;19924;-66
2022/09/29 06:26:35;;;;;;;;;;;5.70;99.90;;;;;;5070513;28;19927;-66
2022/09/29 06:29:00;;;;;;;;;;;6.10;99.90;;;;;;5067846;28;20618;-66
2022/09/29 06:31:27;;;;;;;;;;;6.50;99.90;;;;;;5074813;28;19943;-66
2022/09/29 06:33:55;;;;;;;;;;;6.90;99.90;;;;;;5071146;28;19978;-66
2022/09/29 06:39:07;;;;;;;;;;;7.30;99.90;;;;;;5067017;28;19956;-66
2022/09/29 06:41:33;;;;;;;;;;;7.60;99.90;;;;;;5071081;28;19924;-66
2022/09/29 06:43:58;;;;;;;;;;;7.80;99.90;;;;;;5071562;28;20399;-66
2022/09/29 06:46:25;;;;;;;;;;;8.00;99.90;;;;;;5068874;28;20006;-66
2022/09/29 06:48:51;;;;;;;;;;;8.10;99.90;;;;;;5070888;28;20333;-66
2022/09/29 06:51:17;;;;;;;;;;;8.30;99.90;;;;;;5072595;28;20381;-66
2022/09/29 06:53:45;;;;;;;;;;;8.40;99.90;;;;;;5075845;28;19928;-66
2022/09/29 06:56:10;;;;;;;;;;;8.80;99.90;;;;;;5074851;28;19982;-66
2022/09/29 06:58:36;;;;;;;;;;;9.10;99.90;;;;;;5078937;28;19921;-66
2022/09/29 07:01:02;;;;;;;;;;;9.40;99.90;;;;;;5077111;28;19974;-66
2022/09/29 07:03:28;;;;;;;;;;;9.70;99.90;;;;;;5075445;28;19927;-66
2022/09/29 07:05:54;;;;;;;;;;;10.10;99.90;;;;;;5074566;28;19920;-66
2022/09/29 07:08:19;;;;;;;;;;;10.30;99.90;;;;;;5087345;28;19927;-66
2022/09/29 07:10:45;;;;;;;;;;;10.50;99.90;;;;;;5075135;28;19951;-66
2022/09/29 07:13:11;;;;;;;;;;;10.80;99.90;;;;;;5075795;28;20359;-66
2022/09/29 07:15:37;;;;;;;;;;;10.80;99.90;;;;;;5074953;28;19932;-66
2022/09/29 07:18:03;;;;;;;;;;;10.50;99.90;;;;;;5089485;28;19920;-66
2022/09/29 07:20:30;;;;;;;;;;;10.20;99.90;;;;;;5055359;28;19928;-66
2022/09/29 07:22:56;;;;;;;;;;;10.00;99.90;;;;;;5070994;28;19931;-66
2022/09/29 07:25:22;;;;;;;;;;;9.80;99.90;;;;;;5076212;28;19931;-66
2022/09/29 07:27:48;;;;;;;;;;;9.50;99.90;;;;;;5083400;28;20317;-66
2022/09/29 07:30:13;;;;;;;;;;;9.30;99.90;;;;;;5088633;28;19928;-66
2022/09/29 07:32:39;;;;;;;;;;;9.20;99.90;;;;;;5072677;28;20362;-66
2022/09/29 07:35:05;;;;;;;;;;;9.10;99.90;;;;;;5091128;28;20395;-66
2022/09/29 07:37:31;;;;;;;;;;;9.00;99.90;;;;;;5073909;28;19920;-66
2022/09/29 07:39:56;;;;;;;;;;;9.00;99.90;;;;;;5057230;28;19928;-66
2022/09/29 07:42:22;;;;;;;;;;;8.90;99.90;;;;;;5057826;28;19928;-66
2022/09/29 07:44:47;;;;;;;;;;;8.80;99.90;;;;;;5071419;28;19974;-66
2022/09/29 07:47:13;;;;;;;;;;;8.80;99.90;;;;;;5067765;28;19934;-66
2022/09/29 07:49:39;;;;;;;;;;;8.80;99.90;;;;;;5078017;28;19943;-66
2022/09/29 07:52:05;;;;;;;;;;;8.80;99.90;;;;;;5086692;28;20257;-66
2022/09/29 07:54:30;;;;;;;;;;;8.80;99.90;;;;;;5068529;28;19932;-66
2022/09/29 07:56:56;;;;;;;;;;;8.90;99.90;;;;;;5068228;28;19921;-66
2022/09/29 07:59:21;;;;;;;;;;;9.00;99.90;;;;;;5073807;28;19936;-66
2022/09/29 08:01:47;;;;;;;;;;;9.00;99.90;;;;;;5072513;28;19925;-66
2022/09/29 08:04:12;;;;;;;;;;;9.10;99.90;;;;;;5072792;28;19935;-66
2022/09/29 08:06:39;;;;;;;;;;;9.20;99.90;;;;;;5069624;28;19927;-66
2022/09/29 08:09:05;;;;;;;;;;;9.20;99.90;;;;;;5081891;28;19925;-66
2022/09/29 08:11:30;;;;;;;;;;;9.40;99.90;;;;;;5075894;28;19928;-66
2022/09/29 08:13:56;;;;;;;;;;;9.40;99.90;;;;;;5089013;28;19974;-66
2022/09/29 08:16:22;;;;;;;;;;;9.60;99.90;;;;;;5074960;28;19925;-66
2022/09/29 08:18:49;;;;;;;;;;;9.60;99.90;;;;;;5075044;28;20271;-66
2022/09/29 08:21:14;;;;;;;;;;;9.70;99.90;;;;;;5072485;28;20364;-66
2022/09/29 08:23:41;;;;;;;;;;;9.80;99.90;;;;;;5079921;28;19920;-66
2022/09/29 08:26:11;;;;;;;;;;;9.90;99.90;;;;;;5044546;28;19932;-69
2022/09/29 08:28:37;;;;;;;;;;;10.00;99.90;;;;;;5080179;28;20329;-66
2022/09/29 08:31:13;;;;;;;;;;;10.10;99.90;;;;;;5090673;28;19988;-66
2022/09/29 08:33:39;;;;;;;;;;;10.20;99.90;;;;;;5090318;28;19929;-66
2022/09/29 08:36:13;;;;;;;;;;;10.30;99.90;;;;;;5089660;28;19928;-66
2022/09/29 08:38:46;;;;;;;;;;;10.40;99.90;;;;;;5072883;28;19920;-66
2022/09/29 08:41:19;;;;;;;;;;;10.50;99.90;;;;;;5074477;28;19927;-66
2022/09/29 08:43:45;;;;;;;;;;;10.60;99.90;;;;;;5073492;28;20267;-66
2022/09/29 08:46:22;;;;;;;;;;;10.70;99.90;;;;;;5084796;28;19939;-66
2022/09/29 08:48:49;;;;;;;;;;;10.80;99.90;;;;;;5065144;28;20278;-66
2022/09/29 08:51:23;;;;;;;;;;;10.90;99.90;;;;;;5066773;28;20003;-66
2022/09/29 08:53:51;;;;;;;;;;;11.00;99.90;;;;;;5082675;28;19925;-66
2022/09/29 08:56:17;;;;;;;;;;;11.10;99.90;;;;;;5061985;28;19920;-66
2022/09/29 08:58:43;;;;;;;;;;;11.20;99.90;;;;;;5082396;28;19986;-66
2022/09/29 09:01:27;;;;;;;;;;;11.20;99.90;;;;;;5072949;28;19921;-66
2022/09/29 09:03:56;;;;;;;;;;;11.30;99.90;;;;;;5066023;28;19928;-66
2022/09/29 09:06:27;;;;;;;;;;;11.50;99.90;;;;;;5071765;28;19921;-67
2022/09/29 09:08:56;;;;;;;;;;;11.50;99.90;;;;;;5070827;28;19925;-67
2022/09/29 09:11:36;;;;;;;;;;;11.60;99.90;;;;;;5061173;28;19932;-67
2022/09/29 09:14:08;;;;;;;;;;;11.70;99.90;;;;;;5062869;28;20015;-66
2022/09/29 09:16:42;;;;;;;;;;;11.80;99.90;;;;;;5087740;28;19925;-66
2022/09/29 09:19:16;;;;;;;;;;;11.80;99.90;;;;;;5078557;28;19921;-67
2022/09/29 09:21:43;;;;;;;;;;;11.90;99.90;;;;;;5083313;28;19964;-66
2022/09/29 09:24:28;;;;;;;;;;;11.90;99.90;;;;;;5068548;28;20379;-66
2022/09/29 09:26:55;;;;;;;;;;;12.00;99.90;;;;;;5063392;28;19928;-66
2022/09/29 09:29:24;;;;;;;;;;;12.00;99.90;;;;;;5071513;28;19944;-66
2022/09/29 09:31:53;;;;;;;;;;;12.10;99.90;;;;;;5088562;28;20003;-66
2022/09/29 09:34:18;;;;;;;;;;;12.10;99.90;;;;;;5083741;28;20373;-66
2022/09/29 09:36:47;;;;;;;;;;;12.30;99.90;;;;;;5082683;28;19925;-66
2022/09/29 09:39:19;;;;;;;;;;;12.30;99.90;;;;;;5070797;28;19935;-66
2022/09/29 09:41:46;;;;;;;;;;;12.40;99.90;;;;;;5083555;28;19986;-66
2022/09/29 09:44:17;;;;;;;;;;;12.50;99.90;;;;;;5081387;28;19943;-66
2022/09/29 09:46:48;;;;;;;;;;;12.50;99.90;;;;;;5080563;28;20465;-66
2022/09/29 09:49:30;;;;;;;;;;;12.60;99.90;;;;;;5064532;28;20332;-66
2022/09/29 09:52:02;;;;;;;;;;;12.60;99.90;;;;;;5066336;28;19928;-66
2022/09/29 09:54:43;;;;;;;;;;;12.70;99.90;;;;;;5069036;28;20382;-66
2022/09/29 09:57:09;;;;;;;;;;;12.80;99.90;;;;;;5064082;28;20404;-66
2022/09/29 09:59:51;;;;;;;;;;;12.90;99.90;;;;;;5070749;28;20007;-66
2022/09/29 10:02:18;;;;;;;;;;;13.00;99.90;;;;;;5065263;28;19921;-66
2022/09/29 10:04:43;;;;;;;;;;;13.00;99.90;;;;;;5067918;28;19924;-66
2022/09/29 10:07:09;;;;;;;;;;;13.00;99.90;;;;;;5066444;28;21799;-66
2022/09/29 10:09:34;;;;;;;;;;;13.00;99.90;;;;;;5082141;28;19958;-66
2022/09/29 10:12:00;;;;;;;;;;;13.10;99.90;;;;;;5078738;28;20007;-66
2022/09/29 10:14:26;;;;;;;;;;;13.20;99.90;;;;;;5082944;28;19932;-66
2022/09/29 10:16:57;;;;;;;;;;;13.30;99.90;;;;;;5041378;28;20036;-66
2022/09/29 10:19:42;;;;;;;;;;;13.30;99.90;;;;;;5084070;28;20009;-66
2022/09/29 10:22:11;;;;;;;;;;;13.40;99.90;;;;;;5067292;28;19929;-66
2022/09/29 10:24:36;;;;;;;;;;;13.60;99.90;;;;;;5069782;28;19920;-66
2022/09/29 10:27:02;;;;;;;;;;;;;;;;;;5064354;28;20370;-66
2022/09/29 10:29:28;;;;;;;;;;;13.60;99.90;;;;;;5068055;28;20024;-66
2022/09/29 10:32:35;;;;;;;;;;;13.60;99.90;;;;;;5084103;28;20359;-66
2022/09/29 10:35:04;;;;;;;;;;;13.70;99.90;;;;;;5024920;28;19924;-66
2022/09/29 10:37:35;;;;;;;;;;;13.70;99.90;;;;;;5078282;28;19920;-66
2022/09/29 10:40:21;;;;;;;;;;;13.70;99.90;;;;;;5084018;28;20522;-66
2022/09/29 10:42:49;;;;;;;;;;;13.70;99.90;;;;;;5062793;28;19981;-67
2022/09/29 10:45:22;;;;;;;;;;;13.50;99.90;;;;;;5070110;28;19959;-66
2022/09/29 10:47:56;;;;;;;;;;;13.40;99.90;;;;;;5068939;28;19920;-66
2022/09/29 10:50:23;;;;;;;;;;;13.40;99.90;;;;;;5070608;28;20417;-66
2022/09/29 10:52:52;;;;;;;;;;;13.40;99.90;;;;;;5053648;28;19921;-66
2022/09/29 10:55:19;;;;;;;;;;;13.50;99.90;;;;;;5068761;28;20362;-65
2022/09/29 10:57:46;;;;;;;;;;;13.50;99.90;;;;;;5077559;28;19946;-66
2022/09/29 11:00:30;;;;;;;;;;;13.60;99.90;;;;;;5062794;28;19974;-66
2022/09/29 11:03:07;;;;;;;;;;;13.50;99.90;;;;;;5070424;28;20428;-66
2022/09/29 11:05:34;;;;;;;;;;;13.60;99.90;;;;;;5067928;28;20007;-66
2022/09/29 11:08:00;;;;;;;;;;;13.70;99.90;;;;;;5069028;28;19921;-66
2022/09/29 11:10:26;;;;;;;;;;;13.70;99.90;;;;;;5053758;28;20002;-66
2022/09/29 11:12:52;;;;;;;;;;;13.80;99.90;;;;;;5061168;28;20405;-66
2022/09/29 11:15:22;;;;;;;;;;;13.70;99.90;;;;;;5070330;28;19940;-66
2022/09/29 11:17:49;;;;;;;;;;;13.60;99.90;;;;;;5070686;28;19930;-66
2022/09/29 11:20:14;;;;;;;;;;;13.50;99.90;;;;;;5067951;28;19920;-66
2022/09/29 11:22:40;;;;;;;;;;;13.40;99.90;;;;;;5061336;28;20258;-66
2022/09/29 11:25:10;;;;;;;;;;;13.40;99.90;;;;;;5085155;22;20024;-69
2022/09/29 11:27:50;;;;;;;;;;;13.30;99.90;;;;;;5031000;28;19925;-69
2022/09/29 11:30:19;;;;;;;;;;;13.20;99.90;;;;;;5021892;28;20008;-69
2022/09/29 11:32:59;;;;;;;;;;;13.40;99.90;;;;;;5029122;28;20328;-69
2022/09/29 11:35:48;;;;;;;;;;;13.50;99.90;;;;;;5042552;28;20023;-69
2022/09/29 11:38:23;;;;;;;;;;;13.80;99.90;;;;;;5033285;28;19925;-69
2022/09/29 11:40:48;;;;;;;;;;;14.10;99.90;;;;;;5026316;28;20430;-69
2022/09/29 11:43:14;;;;;;;;;;;;;;;;;;5064777;28;19956;-68
2022/09/29 11:45:43;;;;;;;;;;;14.50;99.90;;;;;;5033897;28;19932;-69
2022/09/29 11:48:17;;;;;;;;;;;14.60;99.90;;;;;;5063600;28;19929;-69
2022/09/29 11:51:02;;;;;;;;;;;14.80;99.90;;;;;;5033002;28;19936;-69
2022/09/29 11:53:57;;;;;;;;;;;14.90;99.90;;;;;;5033809;28;20334;-69
2022/09/29 11:56:51;;;;;;;;;;;15.00;99.90;;;;;;5005902;28;20351;-69
2022/09/29 11:59:19;;;;;;;;;;;15.10;99.90;;;;;;5016858;28;19925;-69
2022/09/29 12:02:04;;;;;;;;;;;15.00;99.90;;;;;;5028288;28;19921;-69
2022/09/29 12:04:29;;;;;;;;;;;15.00;99.90;;;;;;5031595;28;20008;-68
2022/09/29 12:06:56;;;;;;;;;;;14.90;99.90;;;;;;5032268;28;20605;-68
2022/09/29 12:09:33;;;;;;;;;;;14.80;99.90;;;;;;5064337;28;19925;-68
2022/09/29 12:12:12;;;;;;;;;;;14.70;99.90;;;;;;5064145;28;20361;-68
2022/09/29 12:14:53;;;;;;;;;;;14.50;99.90;;;;;;5028058;28;19927;-68
2022/09/29 12:17:19;;;;;;;;;;;14.40;99.90;;;;;;5065837;28;20023;-68
2022/09/29 12:19:47;;;;;;;;;;;14.40;99.90;;;;;;5066079;28;20012;-68
2022/09/29 12:22:20;;;;;;;;;;;14.40;99.90;;;;;;5066386;28;20027;-68
2022/09/29 12:24:49;;;;;;;;;;;14.50;99.90;;;;;;5033458;28;19922;-68
2022/09/29 12:27:43;;;;;;;;;;;14.70;99.90;;;;;;5067244;28;19968;-68
2022/09/29 12:30:28;;;;;;;;;;;14.80;99.90;;;;;;5028814;28;19920;-68
2022/09/29 12:32:57;;;;;;;;;;;14.90;99.90;;;;;;5023910;28;20008;-68
2022/09/29 12:35:32;;;;;;;;;;;15.10;99.90;;;;;;5065717;28;19936;-68
2022/09/29 12:38:06;;;;;;;;;;;15.30;99.90;;;;;;5032387;28;20334;-68
2022/09/29 12:40:36;;;;;;;;;;;15.40;99.90;;;;;;5032245;28;19964;-68
2022/09/29 12:43:02;;;;;;;;;;;;;;;;;;5030694;28;19968;-68
2022/09/29 12:45:50;;;;;;;;;;;15.70;99.90;;;;;;5032989;28;19964;-68
2022/09/29 12:48:20;;;;;;;;;;;15.80;99.90;;;;;;5030972;28;19931;-68
2022/09/29 12:50:51;;;;;;;;;;;16.00;99.90;;;;;;5064907;28;19936;-68
2022/09/29 12:53:20;;;;;;;;;;;16.30;99.90;;;;;;5030708;28;19925;-68
2022/09/29 12:55:48;;;;;;;;;;;16.50;99.90;;;;;;5029924;28;19931;-68
2022/09/29 12:58:23;;;;;;;;;;;16.60;99.90;;;;;;5031805;28;20397;-68
2022/09/29 13:00:51;;;;;;;;;;;16.50;99.90;;;;;;5027581;28;20722;-68
2022/09/29 13:03:30;;;;;;;;;;;16.40;99.90;;;;;;5026948;28;19925;-68
2022/09/29 13:06:14;;;;;;;;;;;16.30;99.90;;;;;;5029105;28;20278;-68
2022/09/29 13:08:42;;;;;;;;;;;16.20;99.50;;;;;;5028586;28;19972;-68
2022/09/29 13:11:14;;;;;;;;;;;16.10;99.90;;;;;;5023907;28;20637;-68
2022/09/29 13:13:50;;;;;;;;;;;16.00;99.90;;;;;;5054682;28;19935;-68
2022/09/29 13:16:31;;;;;;;;;;;15.90;99.90;;;;;;5064550;28;19948;-68
2022/09/29 13:19:22;;;;;;;;;;;16.10;99.90;;;;;;5058796;28;19974;-68
2022/09/29 13:22:07;;;;;;;;;;;16.30;99.90;;;;;;5058712;28;19929;-68
2022/09/29 13:24:40;;;;;;;;;;;16.30;99.90;;;;;;5032281;28;19971;-68
2022/09/29 13:27:16;;;;;;;;;;;16.30;99.90;;;;;;5053477;28;19933;-68
2022/09/29 13:29:45;;;;;;;;;;;16.30;99.90;;;;;;5033655;28;19964;-69
2022/09/29 13:32:11;;;;;;;;;;;16.20;99.90;;;;;;5012983;28;19925;-68
2022/09/29 13:34:37;;;;;;;;;;;16.10;99.90;;;;;;5028071;28;19928;-68
2022/09/29 13:37:05;;;;;;;;;;;16.10;99.90;;;;;;5041664;28;20298;-68
2022/09/29 13:39:31;;;;;;;;;;;16.00;99.90;;;;;;5031153;28;20317;-68
2022/09/29 13:42:16;;;;;;;;;;;15.90;99.90;;;;;;5055694;28;19940;-69
2022/09/29 13:44:42;;;;;;;;;;;15.70;99.90;;;;;;5022490;28;19925;-68
2022/09/29 13:47:26;;;;;;;;;;;15.60;99.90;;;;;;5029052;28;19947;-68
2022/09/29 13:50:00;;;;;;;;;;;15.60;99.90;;;;;;5047391;28;19925;-68
2022/09/29 13:52:29;;;;;;;;;;;15.40;99.90;;;;;;5030468;28;19929;-68
2022/09/29 13:54:57;;;;;;;;;;;15.30;99.90;;;;;;5030558;28;19928;-68
2022/09/29 13:57:24;;;;;;;;;;;15.20;99.90;;;;;;5063399;28;19936;-68
2022/09/29 13:59:55;;;;;;;;;;;15.10;99.90;;;;;;5031430;28;20385;-68
2022/09/29 14:02:31;;;;;;;;;;;15.00;99.90;;;;;;5020917;28;19925;-68
2022/09/29 14:04:57;;;;;;;;;;;15.00;99.90;;;;;;5025113;28;19979;-68
2022/09/29 14:07:35;;;;;;;;;;;14.90;99.90;;;;;;5061307;28;19979;-68
2022/09/29 14:10:06;;;;;;;;;;;14.90;99.90;;;;;;5024485;28;19921;-68
2022/09/29 14:12:33;;;;;;;;;;;14.80;99.90;;;;;;5063191;28;19971;-68
2022/09/29 14:14:59;;;;;;;;;;;14.80;99.90;;;;;;5031262;28;19972;-68
2022/09/29 14:17:27;;;;;;;;;;;14.80;99.90;;;;;;5063553;28;19972;-68
2022/09/29 14:20:01;;;;;;;;;;;14.70;99.90;;;;;;5063860;28;19925;-68
2022/09/29 14:22:30;;;;;;;;;;;14.70;99.90;;;;;;5024873;28;19928;-69
2022/09/29 14:25:11;;;;;;;;;;;14.70;99.90;;;;;;5060238;28;20351;-68
2022/09/29 14:27:57;;;;;;;;;;;14.70;99.90;;;;;;5061133;28;19932;-68
2022/09/29 14:30:25;;;;;;;;;;;14.60;99.90;;;;;;5027762;28;19963;-68
2022/09/29 14:32:53;;;;;;;;;;;14.60;99.90;;;;;;5030248;28;19932;-68
2022/09/29 14:35:19;;;;;;;;;;;14.60;99.90;;;;;;5060533;28;19929;-68
2022/09/29 14:37:46;;;;;;;;;;;14.50;99.90;;;;;;5031387;28;19979;-68
2022/09/29 14:40:27;;;;;;;;;;;14.50;99.90;;;;;;5063091;28;19932;-68
2022/09/29 14:43:03;;;;;;;;;;;14.60;99.90;;;;;;5063598;28;19929;-68